createdAt,value
2019-06-10T00:01:51.374Z,10.40
2019-06-10T00:04:22.244Z,10.40
2019-06-10T00:06:51.085Z,10.40
2019-06-10T00:09:21.131Z,10.40
2019-06-10T00:11:51.469Z,10.40
2019-06-10T00:14:21.250Z,10.50
2019-06-10T00:16:51.043Z,10.50
2019-06-10T00:19:21.752Z,10.40
2019-06-10T00:21:50.946Z,10.40
2019-06-10T00:24:21.124Z,10.40
2019-06-10T00:26:51.119Z,10.40
2019-06-10T00:29:22.269Z,10.50
2019-06-10T00:31:52.015Z,10.50
2019-06-10T00:34:21.060Z,10.50
2019-06-10T00:36:50.963Z,10.50
2019-06-10T00:39:22.163Z,10.50
2019-06-10T00:41:52.200Z,10.50
2019-06-10T00:44:20.908Z,10.50
2019-06-10T00:46:51.863Z,10.40
2019-06-10T00:49:21.327Z,10.40
2019-06-10T00:51:50.942Z,10.40
2019-06-10T00:54:21.858Z,10.40
2019-06-10T00:56:51.855Z,10.50
2019-06-10T00:59:22.013Z,10.50
2019-06-10T01:01:51.169Z,10.50
2019-06-10T01:04:21.719Z,10.50
2019-06-10T01:06:51.411Z,10.50
2019-06-10T01:09:21.829Z,10.50
2019-06-10T01:11:51.868Z,10.50
2019-06-10T01:14:22.436Z,10.50
2019-06-10T01:16:51.241Z,10.40
2019-06-10T01:19:21.856Z,10.40
2019-06-10T01:21:52.254Z,10.40
2019-06-10T01:24:22.374Z,10.50
2019-06-10T01:26:52.365Z,10.50
2019-06-10T01:29:21.533Z,10.50
2019-06-10T01:31:51.253Z,10.50
2019-06-10T01:34:21.728Z,10.50
2019-06-10T01:36:51.097Z,10.50
2019-06-10T01:39:22.461Z,10.50
2019-06-10T01:41:51.241Z,10.50
2019-06-10T01:44:22.109Z,10.50
2019-06-10T01:46:51.643Z,10.50
2019-06-10T01:49:21.292Z,10.40
2019-06-10T01:51:51.540Z,10.50
2019-06-10T01:54:21.272Z,10.40
2019-06-10T01:56:51.153Z,10.30
2019-06-10T01:59:21.953Z,10.30
2019-06-10T02:02:00.801Z,10.30
2019-06-10T02:04:31.764Z,10.30
2019-06-10T02:07:01.621Z,10.30
2019-06-10T02:09:30.989Z,10.30
2019-06-10T02:12:02.014Z,10.30
2019-06-10T02:14:31.752Z,10.20
2019-06-10T02:17:01.202Z,10.20
2019-06-10T02:19:31.145Z,10.20
2019-06-10T02:22:01.268Z,10.10
2019-06-10T02:24:31.624Z,10.10
2019-06-10T02:27:01.175Z,10.20
2019-06-10T02:29:30.759Z,10.20
2019-06-10T02:31:59.721Z,10.20
2019-06-10T02:34:33.094Z,10.20
2019-06-10T02:37:00.095Z,10.20
2019-06-10T02:39:35.220Z,10.20
2019-06-10T02:42:04.199Z,10.20
2019-06-10T02:44:36.393Z,10.20
2019-06-10T02:47:03.354Z,10.20
2019-06-10T02:49:51.606Z,10.10
2019-06-10T02:52:05.116Z,10.10
2019-06-10T02:54:35.903Z,10.10
2019-06-10T02:57:04.674Z,10.10
2019-06-10T02:59:36.422Z,10.10
2019-06-10T03:02:04.118Z,10.10
2019-06-10T03:04:37.723Z,10.10
2019-06-10T03:07:03.508Z,10.00
2019-06-10T03:09:35.713Z,10.10
2019-06-10T03:12:04.689Z,10.00
2019-06-10T03:14:33.848Z,10.10
2019-06-10T03:17:04.292Z,10.10
2019-06-10T03:19:46.561Z,10.10
2019-06-10T03:22:03.584Z,10.20
2019-06-10T03:24:32.775Z,10.20
2019-06-10T03:27:02.746Z,10.20
2019-06-10T03:29:32.782Z,10.20
2019-06-10T03:32:05.078Z,10.20
2019-06-10T03:34:41.516Z,10.20
2019-06-10T03:37:04.954Z,10.20
2019-06-10T03:39:33.806Z,10.10
2019-06-10T03:42:03.014Z,10.20
2019-06-10T03:44:33.022Z,10.10
2019-06-10T03:47:02.823Z,10.20
2019-06-10T03:49:32.206Z,10.20
2019-06-10T03:52:02.458Z,10.20
2019-06-10T03:54:32.521Z,10.20
2019-06-10T03:57:02.867Z,10.20
2019-06-10T03:59:32.377Z,10.20
2019-06-10T04:02:02.419Z,10.20
2019-06-10T04:04:32.862Z,10.20
2019-06-10T04:07:03.819Z,10.30
2019-06-10T04:09:33.089Z,10.30
2019-06-10T04:12:27.095Z,10.40
2019-06-10T04:14:56.084Z,10.40
2019-06-10T04:17:25.704Z,10.40
2019-06-10T04:20:08.117Z,10.50
2019-06-10T04:22:26.834Z,10.50
2019-06-10T04:24:56.186Z,10.50
2019-06-10T04:27:25.616Z,10.40
2019-06-10T04:29:55.559Z,10.50
2019-06-10T04:32:25.794Z,10.50
2019-06-10T04:34:55.210Z,10.50
2019-06-10T04:37:26.157Z,10.50
2019-06-10T04:39:57.505Z,10.50
2019-06-10T04:42:26.105Z,10.60
2019-06-10T04:44:56.510Z,10.60
2019-06-10T04:47:26.493Z,10.50
2019-06-10T04:49:58.743Z,10.60
2019-06-10T04:52:28.421Z,10.70
2019-06-10T04:54:58.052Z,10.70
2019-06-10T04:57:28.039Z,10.70
2019-06-10T04:59:58.754Z,10.70
2019-06-10T05:02:28.931Z,10.80
2019-06-10T05:04:58.309Z,10.80
2019-06-10T05:07:31.321Z,10.90
2019-06-10T05:09:58.424Z,11.00
2019-06-10T05:12:29.634Z,10.90
2019-06-10T05:14:58.454Z,11.00
2019-06-10T05:17:28.954Z,11.10
2019-06-10T05:19:57.750Z,11.20
2019-06-10T05:22:27.240Z,11.20
2019-06-10T05:24:57.386Z,11.30
2019-06-10T05:27:27.035Z,11.30
2019-06-10T05:29:56.678Z,11.40
2019-06-10T05:32:26.241Z,11.30
2019-06-10T05:34:55.993Z,11.40
2019-06-10T05:37:26.432Z,11.40
2019-06-10T05:39:55.655Z,11.40
2019-06-10T05:42:26.086Z,11.50
2019-06-10T05:44:55.077Z,11.50
2019-06-10T05:47:26.679Z,11.50
2019-06-10T05:49:54.866Z,11.60
2019-06-10T05:52:25.830Z,11.60
2019-06-10T05:54:54.176Z,11.60
2019-06-10T05:57:25.773Z,11.70
2019-06-10T05:59:54.585Z,11.70
2019-06-10T06:02:23.909Z,11.70
2019-06-10T06:04:53.164Z,11.80
2019-06-10T06:07:22.338Z,11.80
2019-06-10T06:09:53.266Z,11.80
2019-06-10T06:12:22.555Z,11.90
2019-06-10T06:14:52.744Z,11.90
2019-06-10T06:17:23.630Z,12.10
2019-06-10T06:19:53.428Z,12.10
2019-06-10T06:22:22.357Z,12.20
2019-06-10T06:24:52.305Z,12.40
2019-06-10T06:27:22.483Z,12.50
2019-06-10T06:29:52.482Z,12.50
2019-06-10T06:32:23.411Z,12.50
2019-06-10T06:34:52.656Z,12.50
2019-06-10T06:37:23.195Z,12.50
2019-06-10T06:39:52.421Z,12.50
2019-06-10T06:42:22.906Z,12.50
2019-06-10T06:44:52.566Z,12.50
2019-06-10T06:47:22.618Z,12.50
2019-06-10T06:49:53.173Z,12.40
2019-06-10T06:52:46.934Z,12.50
2019-06-10T06:54:53.051Z,12.30
2019-06-10T06:57:22.391Z,12.40
2019-06-10T06:59:52.663Z,12.50
2019-06-10T07:02:22.727Z,12.50
2019-06-10T07:04:52.572Z,12.50
2019-06-10T07:07:22.385Z,12.60
2019-06-10T07:09:52.958Z,12.60
2019-06-10T07:12:24.536Z,12.60
2019-06-10T07:14:53.398Z,12.60
2019-06-10T07:17:22.750Z,12.70
2019-06-10T07:19:52.952Z,12.70
2019-06-10T07:22:23.378Z,12.60
2019-06-10T07:24:52.949Z,12.60
2019-06-10T07:27:22.623Z,12.50
2019-06-10T07:29:52.994Z,12.50
2019-06-10T07:32:22.752Z,12.40
2019-06-10T07:34:52.436Z,12.30
2019-06-10T07:37:23.168Z,12.30
2019-06-10T07:39:52.397Z,12.30
2019-06-10T07:42:22.786Z,12.30
2019-06-10T07:44:53.317Z,12.20
2019-06-10T07:47:23.131Z,12.30
2019-06-10T07:49:52.314Z,12.30
2019-06-10T07:52:23.333Z,12.30
2019-06-10T07:54:52.916Z,12.40
2019-06-10T07:57:22.573Z,12.40
2019-06-10T07:59:52.378Z,12.40
2019-06-10T08:02:23.110Z,12.40
2019-06-10T08:04:54.319Z,12.40
2019-06-10T08:07:22.557Z,12.30
2019-06-10T08:09:53.318Z,12.40
2019-06-10T08:12:23.276Z,12.50
2019-06-10T08:14:53.330Z,12.50
2019-06-10T08:17:22.553Z,12.60
2019-06-10T08:19:54.172Z,12.70
2019-06-10T08:22:31.301Z,12.70
2019-06-10T08:24:52.472Z,12.80
2019-06-10T08:27:22.765Z,12.80
2019-06-10T08:30:13.128Z,12.90
2019-06-10T08:32:24.421Z,12.80
2019-06-10T08:34:53.107Z,12.60
2019-06-10T08:37:23.497Z,12.50
2019-06-10T08:39:53.011Z,12.40
2019-06-10T08:42:23.340Z,12.50
2019-06-10T08:44:53.373Z,12.50
2019-06-10T08:47:22.938Z,12.60
2019-06-10T08:49:53.134Z,12.70
2019-06-10T08:52:23.706Z,12.80
2019-06-10T08:54:54.401Z,12.90
2019-06-10T08:57:24.085Z,13.10
2019-06-10T08:59:53.386Z,13.00
2019-06-10T09:02:24.232Z,13.00
2019-06-10T09:04:53.725Z,13.00
2019-06-10T09:07:23.740Z,13.20
2019-06-10T09:09:55.505Z,13.20
2019-06-10T09:12:32.835Z,13.10
2019-06-10T09:14:54.787Z,13.10
2019-06-10T09:17:23.558Z,13.10
2019-06-10T09:19:54.180Z,13.00
2019-06-10T09:22:23.721Z,13.00
2019-06-10T09:24:56.158Z,13.00
2019-06-10T09:27:26.686Z,13.00
2019-06-10T09:29:55.725Z,13.00
2019-06-10T09:32:24.522Z,13.10
2019-06-10T09:34:57.356Z,13.10
2019-06-10T09:37:23.736Z,13.10
2019-06-10T09:39:59.098Z,13.20
2019-06-10T09:42:25.880Z,13.40
2019-06-10T09:44:55.587Z,13.50
2019-06-10T09:47:24.679Z,13.50
2019-06-10T09:49:55.694Z,13.70
2019-06-10T09:52:28.400Z,13.60
2019-06-10T09:54:57.278Z,13.80
2019-06-10T09:57:26.062Z,13.80
2019-06-10T09:59:56.476Z,13.60
2019-06-10T10:02:25.371Z,13.50
2019-06-10T10:04:58.293Z,13.50
2019-06-10T10:07:25.100Z,13.60
2019-06-10T10:09:57.056Z,13.60
2019-06-10T10:12:24.937Z,13.70
2019-06-10T10:14:56.257Z,13.80
2019-06-10T10:17:24.270Z,13.80
2019-06-10T10:19:56.746Z,13.90
2019-06-10T10:22:23.702Z,13.90
2019-06-10T10:24:55.252Z,14.10
2019-06-10T10:27:23.363Z,14.20
2019-06-10T10:29:56.975Z,14.10
2019-06-10T10:32:23.305Z,14.10
2019-06-10T10:34:56.146Z,14.10
2019-06-10T10:37:23.001Z,14.40
2019-06-10T10:39:54.473Z,14.30
2019-06-10T10:42:23.668Z,14.20
2019-06-10T10:44:58.918Z,14.10
2019-06-10T10:47:27.466Z,14.00
2019-06-10T10:49:56.746Z,14.00
2019-06-10T10:52:25.125Z,14.10
2019-06-10T10:54:55.283Z,14.10
2019-06-10T10:57:24.697Z,14.10
2019-06-10T10:59:56.059Z,14.20
2019-06-10T11:02:24.315Z,14.40
2019-06-10T11:04:55.428Z,14.40
2019-06-10T11:07:23.615Z,14.40
2019-06-10T11:09:55.140Z,14.40
2019-06-10T11:12:24.609Z,14.40
2019-06-10T11:14:57.039Z,14.30
2019-06-10T11:17:25.735Z,14.30
2019-06-10T11:19:55.932Z,14.40
2019-06-10T11:22:24.752Z,14.50
2019-06-10T11:24:55.844Z,14.50
2019-06-10T11:27:24.062Z,14.60
2019-06-10T11:29:53.936Z,14.40
2019-06-10T11:32:23.623Z,14.40
2019-06-10T11:34:55.524Z,14.30
2019-06-10T11:37:23.139Z,14.50
2019-06-10T11:39:52.325Z,14.50
2019-06-10T11:42:23.343Z,14.60
2019-06-10T11:44:57.779Z,14.40
2019-06-10T11:47:24.877Z,14.20
2019-06-10T11:49:55.042Z,14.00
2019-06-10T11:52:24.206Z,14.10
2019-06-10T11:55:05.610Z,14.00
2019-06-10T11:57:23.420Z,13.80
2019-06-10T11:59:53.221Z,13.90
2019-06-10T12:02:22.933Z,13.90
2019-06-10T12:04:53.660Z,14.10
2019-06-10T12:07:22.386Z,14.10
2019-06-10T12:09:53.995Z,14.20
2019-06-10T12:12:22.095Z,14.30
2019-06-10T12:14:54.853Z,14.50
2019-06-10T12:17:40.473Z,14.50
2019-06-10T12:19:58.924Z,14.60
2019-06-10T12:22:25.695Z,14.70
2019-06-10T12:25:21.065Z,14.80
2019-06-10T12:27:25.003Z,14.80
2019-06-10T12:29:56.285Z,14.90
2019-06-10T12:32:24.327Z,14.70
2019-06-10T12:34:53.292Z,14.70
2019-06-10T12:37:23.906Z,14.70
2019-06-10T12:39:55.045Z,14.70
2019-06-10T12:42:23.926Z,14.80
2019-06-10T12:44:54.475Z,15.00
2019-06-10T12:47:23.191Z,14.80
2019-06-10T12:49:53.627Z,14.70
2019-06-10T12:52:22.994Z,14.80
2019-06-10T12:54:51.842Z,14.80
2019-06-10T12:57:22.850Z,14.70
2019-06-10T12:59:52.264Z,14.70
2019-06-10T13:02:24.766Z,14.80
2019-06-10T13:04:52.432Z,14.60
2019-06-10T13:07:25.320Z,14.40
2019-06-10T13:09:56.083Z,14.40
2019-06-10T13:12:24.941Z,14.60
2019-06-10T13:14:53.733Z,14.70
2019-06-10T13:17:22.584Z,14.80
2019-06-10T13:19:52.299Z,14.90
2019-06-10T13:22:23.113Z,14.90
2019-06-10T13:24:53.512Z,15.10
2019-06-10T13:27:22.818Z,15.10
2019-06-10T13:29:53.191Z,15.20
2019-06-10T13:32:22.136Z,15.10
2019-06-10T13:34:52.759Z,14.90
2019-06-10T13:37:22.800Z,14.80
2019-06-10T13:39:52.465Z,14.70
2019-06-10T13:42:22.810Z,14.70
2019-06-10T13:44:52.371Z,14.60
2019-06-10T13:47:22.525Z,14.60
2019-06-10T13:49:53.281Z,14.60
2019-06-10T13:52:23.781Z,14.40
2019-06-10T13:54:52.699Z,14.50
2019-06-10T13:57:22.998Z,14.30
2019-06-10T13:59:52.083Z,14.30
2019-06-10T14:02:24.637Z,14.50
2019-06-10T14:04:53.318Z,14.40
2019-06-10T14:07:23.344Z,14.30
2019-06-10T14:09:52.493Z,14.20
2019-06-10T14:12:23.135Z,14.00
2019-06-10T14:14:53.301Z,14.00
2019-06-10T14:17:22.918Z,13.80
2019-06-10T14:19:52.078Z,13.90
2019-06-10T14:22:22.960Z,13.90
2019-06-10T14:24:53.037Z,14.00
2019-06-10T14:27:24.513Z,14.20
2019-06-10T14:29:52.893Z,14.20
2019-06-10T14:32:22.369Z,14.40
2019-06-10T14:34:52.648Z,14.40
2019-06-10T14:37:34.983Z,14.50
2019-06-10T14:39:52.885Z,14.60
2019-06-10T14:42:23.027Z,14.50
2019-06-10T14:44:52.672Z,14.60
2019-06-10T14:47:22.991Z,14.60
2019-06-10T14:49:53.032Z,14.50
2019-06-10T14:52:22.733Z,14.50
2019-06-10T14:54:53.204Z,14.60
2019-06-10T14:57:22.865Z,14.70
2019-06-10T14:59:53.158Z,14.60
2019-06-10T15:02:22.132Z,14.40
2019-06-10T15:04:53.213Z,14.20
2019-06-10T15:07:23.826Z,14.30
2019-06-10T15:09:52.878Z,14.50
2019-06-10T15:12:22.787Z,14.40
2019-06-10T15:14:52.157Z,14.60
2019-06-10T15:17:21.025Z,14.60
2019-06-10T15:19:50.103Z,14.30
2019-06-10T15:22:20.025Z,14.20
2019-06-10T15:24:48.959Z,14.20
2019-06-10T15:27:26.666Z,14.10
2019-06-10T15:29:48.357Z,14.10
2019-06-10T15:32:29.721Z,14.30
2019-06-10T15:34:47.886Z,14.40
2019-06-10T15:37:18.753Z,14.50
2019-06-10T15:39:47.438Z,14.70
2019-06-10T15:42:17.725Z,14.70
2019-06-10T15:44:52.297Z,14.60
2019-06-10T15:47:21.021Z,14.60
2019-06-10T15:49:47.624Z,14.50
2019-06-10T15:52:18.759Z,14.40
2019-06-10T15:54:47.013Z,14.00
2019-06-10T15:57:32.253Z,14.10
2019-06-10T15:59:46.568Z,14.10
2019-06-10T16:02:18.245Z,14.10
2019-06-10T16:04:45.900Z,14.00
2019-06-10T16:07:17.132Z,14.20
2019-06-10T16:09:45.191Z,14.30
2019-06-10T16:12:16.391Z,14.30
2019-06-10T16:14:44.487Z,14.40
2019-06-10T16:17:14.525Z,14.40
2019-06-10T16:19:43.815Z,14.30
2019-06-10T16:22:14.139Z,14.10
2019-06-10T16:24:43.392Z,14.10
2019-06-10T16:27:12.700Z,14.10
2019-06-10T16:29:42.670Z,14.10
2019-06-10T16:32:13.085Z,14.20
2019-06-10T16:34:41.998Z,14.30
2019-06-10T16:37:12.785Z,14.40
2019-06-10T16:39:43.201Z,14.50
2019-06-10T16:42:12.286Z,14.60
2019-06-10T16:44:42.384Z,14.60
2019-06-10T16:47:12.615Z,14.90
2019-06-10T16:49:42.866Z,15.10
2019-06-10T16:52:12.207Z,15.00
2019-06-10T16:54:42.067Z,14.90
2019-06-10T16:57:12.338Z,14.80
2019-06-10T16:59:42.947Z,15.00
2019-06-10T17:02:12.773Z,15.20
2019-06-10T17:04:43.515Z,15.40
2019-06-10T17:07:12.659Z,15.50
2019-06-10T17:09:42.151Z,15.70
2019-06-10T17:12:12.655Z,16.00
2019-06-10T17:14:42.942Z,16.00
2019-06-10T17:17:12.736Z,15.90
2019-06-10T17:19:41.599Z,15.90
2019-06-10T17:22:12.502Z,15.90
2019-06-10T17:24:42.259Z,15.90
2019-06-10T17:27:13.085Z,16.20
2019-06-10T17:29:42.652Z,16.40
2019-06-10T17:32:13.322Z,16.50
2019-06-10T17:34:42.381Z,16.60
2019-06-10T17:37:12.512Z,16.80
2019-06-10T17:39:42.735Z,17.00
2019-06-10T17:42:12.399Z,16.50
2019-06-10T17:44:42.846Z,16.10
2019-06-10T17:47:13.216Z,15.90
2019-06-10T17:49:42.208Z,15.90
2019-06-10T17:52:12.941Z,15.90
2019-06-10T17:54:41.512Z,15.80
2019-06-10T17:57:12.651Z,15.80
2019-06-10T17:59:41.132Z,15.60
2019-06-10T18:02:12.220Z,15.80
2019-06-10T18:04:42.085Z,16.00
2019-06-10T18:07:13.021Z,16.30
2019-06-10T18:09:41.382Z,16.10
2019-06-10T18:12:10.232Z,16.00
2019-06-10T18:14:39.061Z,16.20
2019-06-10T18:17:07.859Z,16.50
2019-06-10T18:19:37.499Z,16.60
2019-06-10T18:22:06.365Z,16.50
2019-06-10T18:24:35.468Z,16.50
2019-06-10T18:27:04.566Z,16.30
2019-06-10T18:29:35.295Z,16.20
2019-06-10T18:32:03.878Z,16.20
2019-06-10T18:34:36.190Z,16.40
2019-06-10T18:37:03.377Z,16.10
2019-06-10T18:39:33.495Z,16.10
2019-06-10T18:42:03.319Z,16.00
2019-06-10T18:44:34.406Z,16.10
2019-06-10T18:47:03.133Z,16.10
2019-06-10T18:49:33.981Z,16.10
2019-06-10T18:52:02.355Z,16.10
2019-06-10T18:54:33.900Z,16.10
2019-06-10T18:57:02.967Z,16.00
2019-06-10T18:59:33.172Z,16.00
2019-06-10T19:02:06.072Z,16.00
2019-06-10T19:04:35.011Z,16.00
2019-06-10T19:07:03.415Z,16.10
2019-06-10T19:09:35.876Z,16.20
2019-06-10T19:12:03.021Z,16.20
2019-06-10T19:14:35.547Z,16.20
2019-06-10T19:17:05.015Z,16.10
2019-06-10T19:19:33.984Z,16.00
2019-06-10T19:22:08.719Z,16.00
2019-06-10T19:24:36.250Z,15.90
2019-06-10T19:27:05.435Z,15.70
2019-06-10T19:29:41.957Z,15.50
2019-06-10T19:32:04.920Z,15.60
2019-06-10T19:34:33.718Z,15.40
2019-06-10T19:37:02.687Z,15.30
2019-06-10T19:39:36.436Z,15.20
2019-06-10T19:42:02.852Z,15.30
2019-06-10T19:44:32.758Z,15.00
2019-06-10T19:47:02.554Z,15.00
2019-06-10T19:49:32.632Z,15.10
2019-06-10T19:52:03.029Z,15.00
2019-06-10T19:54:33.187Z,15.10
2019-06-10T19:57:02.697Z,15.00
2019-06-10T19:59:50.394Z,14.90
2019-06-10T20:02:03.370Z,14.50
2019-06-10T20:04:33.449Z,14.20
2019-06-10T20:07:02.779Z,14.00
2019-06-10T20:09:32.902Z,13.80
2019-06-10T20:12:02.297Z,13.40
2019-06-10T20:14:32.263Z,13.30
2019-06-10T20:17:03.154Z,13.10
2019-06-10T20:19:32.641Z,12.90
2019-06-10T20:22:01.470Z,12.70
2019-06-10T20:24:31.010Z,12.80
2019-06-10T20:26:59.878Z,12.80
2019-06-10T20:29:28.650Z,12.50
2019-06-10T20:31:57.485Z,12.50
2019-06-10T20:34:26.293Z,12.60
2019-06-10T20:36:55.135Z,12.50
2019-06-10T20:39:24.874Z,12.30
2019-06-10T20:41:55.746Z,12.10
2019-06-10T20:44:24.378Z,11.90
2019-06-10T20:46:53.182Z,11.80
2019-06-10T20:49:22.486Z,11.60
2019-06-10T20:52:06.640Z,11.40
2019-06-10T20:54:23.225Z,11.50
2019-06-10T20:56:53.391Z,11.40
2019-06-10T20:59:26.083Z,11.30
2019-06-10T21:01:53.916Z,11.20
2019-06-10T21:04:22.759Z,11.20
2019-06-10T21:06:53.405Z,11.20
2019-06-10T21:09:23.125Z,11.20
2019-06-10T21:11:54.402Z,11.20
2019-06-10T21:14:23.025Z,11.10
2019-06-10T21:16:53.544Z,11.00
2019-06-10T21:19:23.563Z,11.10
2019-06-10T21:21:54.765Z,11.00
2019-06-10T21:24:23.298Z,10.80
2019-06-10T21:26:54.640Z,10.60
2019-06-10T21:29:22.560Z,10.70
2019-06-10T21:31:54.478Z,10.70
2019-06-10T21:34:22.489Z,10.60
2019-06-10T21:36:53.813Z,10.50
2019-06-10T21:39:22.114Z,10.60
2019-06-10T21:41:54.193Z,10.50
2019-06-10T21:44:23.162Z,10.50
2019-06-10T21:46:52.313Z,10.40
2019-06-10T21:49:23.402Z,10.30
2019-06-10T21:51:55.497Z,10.20
2019-06-10T21:54:22.528Z,10.20
2019-06-10T21:56:54.950Z,10.20
2019-06-10T21:59:21.883Z,10.20
2019-06-10T22:01:51.232Z,10.20
2019-06-10T22:04:22.357Z,10.10
2019-06-10T22:06:54.395Z,10.10
2019-06-10T22:09:24.116Z,10.00
2019-06-10T22:11:54.492Z,9.90
2019-06-10T22:14:23.506Z,10.00
2019-06-10T22:16:53.364Z,10.00
2019-06-10T22:19:23.197Z,10.00
2019-06-10T22:21:55.245Z,10.00
2019-06-10T22:24:24.135Z,9.90
2019-06-10T22:26:53.238Z,9.90
2019-06-10T22:29:23.090Z,9.90
2019-06-10T22:31:56.661Z,9.90
2019-06-10T22:34:25.594Z,10.00
2019-06-10T22:36:56.201Z,10.00
2019-06-10T22:39:25.156Z,9.90
2019-06-10T22:41:56.532Z,9.80
2019-06-10T22:44:24.454Z,9.70
2019-06-10T22:46:55.224Z,9.70
2019-06-10T22:49:23.785Z,9.60
2019-06-10T22:51:54.824Z,9.60
2019-06-10T22:54:23.001Z,9.50
2019-06-10T22:56:54.292Z,9.50
2019-06-10T22:59:22.908Z,9.60
2019-06-10T23:01:53.794Z,9.40
2019-06-10T23:04:22.402Z,9.40
2019-06-10T23:06:53.388Z,9.30
2019-06-10T23:09:22.518Z,9.20
2019-06-10T23:11:53.503Z,9.10
2019-06-10T23:14:22.757Z,9.10
2019-06-10T23:16:54.006Z,9.00
2019-06-10T23:19:23.440Z,9.00
2019-06-10T23:21:54.189Z,9.10
2019-06-10T23:24:23.126Z,9.10
2019-06-10T23:26:51.848Z,9.20
2019-06-10T23:29:22.633Z,9.20
2019-06-10T23:31:55.510Z,9.20
2019-06-10T23:34:23.178Z,9.30
2019-06-10T23:36:54.920Z,9.30
2019-06-10T23:39:22.768Z,9.30
2019-06-10T23:41:53.652Z,9.30
2019-06-10T23:44:22.891Z,9.30
2019-06-10T23:46:53.064Z,9.30
2019-06-10T23:49:22.795Z,9.20
2019-06-10T23:51:54.106Z,9.20
2019-06-10T23:54:22.900Z,9.20
2019-06-10T23:56:52.859Z,9.10
2019-06-10T23:59:22.613Z,9.10
